createdAt,value
2022-10-29T00:00:08.092Z,3.17
2022-10-29T00:02:36.640Z,3.23
2022-10-29T00:05:05.199Z,2.70
2022-10-29T00:07:33.269Z,3.53
2022-10-29T00:10:01.722Z,3.93
2022-10-29T00:12:30.013Z,3.10
2022-10-29T00:14:59.427Z,2.77
2022-10-29T00:17:27.736Z,2.60
2022-10-29T00:19:56.222Z,4.07
2022-10-29T00:22:24.594Z,3.50
2022-10-29T00:24:53.074Z,3.07
2022-10-29T00:27:21.172Z,2.43
2022-10-29T00:29:49.762Z,2.57
2022-10-29T00:32:19.291Z,3.10
2022-10-29T00:34:47.672Z,3.70
2022-10-29T00:37:16.066Z,2.80
2022-10-29T00:39:44.411Z,2.87
2022-10-29T00:42:16.179Z,3.23
2022-10-29T00:44:44.346Z,2.67
2022-10-29T00:47:22.138Z,2.80
2022-10-29T00:49:54.291Z,2.77
2022-10-29T00:52:24.815Z,2.90
2022-10-29T00:54:54.743Z,3.20
2022-10-29T00:57:28.216Z,2.87
2022-10-29T00:59:56.902Z,2.93
2022-10-29T01:02:27.508Z,3.33
2022-10-29T01:04:56.037Z,2.73
2022-10-29T01:07:24.567Z,2.30
2022-10-29T01:09:53.022Z,3.00
2022-10-29T01:12:54.800Z,3.40
2022-10-29T01:15:31.778Z,2.43
2022-10-29T01:18:09.971Z,3.27
2022-10-29T01:21:26.684Z,2.73
2022-10-29T01:24:28.041Z,2.60
2022-10-29T01:27:34.839Z,2.80
2022-10-29T01:30:14.204Z,2.70
2022-10-29T01:32:55.327Z,2.20
2022-10-29T01:35:31.324Z,3.70
2022-10-29T01:38:09.463Z,2.77
2022-10-29T01:40:47.417Z,2.97
2022-10-29T01:45:54.086Z,2.90
2022-10-29T01:48:30.471Z,2.80
2022-10-29T01:51:06.164Z,3.67
2022-10-29T01:53:37.783Z,2.60
2022-10-29T01:56:06.479Z,3.97
2022-10-29T01:58:37.090Z,2.90
2022-10-29T02:01:15.499Z,3.20
2022-10-29T02:03:54.196Z,3.10
2022-10-29T02:06:36.997Z,2.60
2022-10-29T02:09:12.253Z,2.67
2022-10-29T02:11:48.228Z,3.10
2022-10-29T02:14:22.831Z,2.77
2022-10-29T02:16:51.540Z,2.40
2022-10-29T02:19:21.485Z,2.37
2022-10-29T02:21:51.984Z,3.03
2022-10-29T02:24:20.380Z,2.63
2022-10-29T02:26:48.595Z,3.30
2022-10-29T02:29:17.042Z,3.13
2022-10-29T02:31:45.834Z,3.37
2022-10-29T02:34:14.277Z,3.27
2022-10-29T02:36:44.059Z,3.10
2022-10-29T02:39:12.163Z,3.47
2022-10-29T02:41:40.513Z,2.47
2022-10-29T02:44:08.819Z,2.90
2022-10-29T02:46:39.795Z,2.97
2022-10-29T02:49:08.320Z,2.83
2022-10-29T02:51:36.667Z,2.47
2022-10-29T02:54:06.274Z,2.87
2022-10-29T02:56:34.286Z,3.10
2022-10-29T02:59:04.250Z,2.67
2022-10-29T03:01:34.883Z,2.97
2022-10-29T03:04:02.949Z,2.87
2022-10-29T03:06:31.467Z,2.63
2022-10-29T03:08:59.803Z,3.07
2022-10-29T03:11:29.694Z,3.63
2022-10-29T03:13:58.115Z,3.40
2022-10-29T03:16:26.324Z,3.83
2022-10-29T03:18:54.673Z,2.43
2022-10-29T03:21:22.769Z,2.93
2022-10-29T03:23:51.109Z,2.97
2022-10-29T03:26:19.187Z,3.70
2022-10-29T03:28:48.888Z,3.00
2022-10-29T03:31:16.923Z,2.60
2022-10-29T03:33:45.337Z,2.60
2022-10-29T03:36:13.678Z,2.70
2022-10-29T03:38:42.069Z,2.60
2022-10-29T03:41:10.981Z,2.50
2022-10-29T03:43:39.571Z,2.80
2022-10-29T03:46:09.114Z,2.33
2022-10-29T03:48:37.760Z,2.77
2022-10-29T03:51:07.116Z,2.20
2022-10-29T03:53:36.520Z,2.50
2022-10-29T03:56:06.644Z,3.40
2022-10-29T03:58:34.700Z,2.70
2022-10-29T04:01:05.292Z,2.50
2022-10-29T04:03:36.614Z,2.30
2022-10-29T04:06:10.736Z,2.60
2022-10-29T04:08:39.560Z,2.40
2022-10-29T04:11:08.736Z,2.43
2022-10-29T04:13:36.761Z,2.97
2022-10-29T04:16:05.041Z,2.63
2022-10-29T04:18:34.786Z,2.20
2022-10-29T04:27:01.752Z,2.67
2022-10-29T04:29:28.201Z,2.50
2022-10-29T04:31:56.567Z,2.80
2022-10-29T04:34:26.415Z,3.60
2022-10-29T04:36:54.702Z,2.60
2022-10-29T04:39:23.586Z,2.80
2022-10-29T04:41:52.212Z,2.23
2022-10-29T04:44:21.803Z,2.57
2022-10-29T04:46:50.215Z,2.60
2022-10-29T04:49:18.658Z,2.73
2022-10-29T04:51:48.441Z,2.57
2022-10-29T04:54:16.715Z,2.83
2022-10-29T04:56:45.070Z,2.93
2022-10-29T04:59:13.176Z,2.43
2022-10-29T05:01:41.328Z,2.53
2022-10-29T05:04:09.788Z,2.80
2022-10-29T05:06:38.087Z,2.57
2022-10-29T05:09:07.905Z,2.67
2022-10-29T05:11:36.394Z,2.53
2022-10-29T05:14:04.569Z,2.40
2022-10-29T05:16:33.010Z,2.20
2022-10-29T05:19:01.380Z,2.70
2022-10-29T05:21:29.425Z,2.43
2022-10-29T05:23:57.494Z,2.73
2022-10-29T05:26:27.025Z,2.67
2022-10-29T05:28:55.373Z,2.57
2022-10-29T05:31:23.783Z,2.90
2022-10-29T05:33:53.963Z,2.90
2022-10-29T05:36:24.141Z,2.50
2022-10-29T05:38:52.324Z,2.47
2022-10-29T05:41:20.763Z,2.23
2022-10-29T05:43:51.605Z,3.27
2022-10-29T05:46:20.036Z,3.20
2022-10-29T05:48:48.419Z,2.87
2022-10-29T05:51:16.475Z,2.30
2022-10-29T05:53:44.524Z,2.50
2022-10-29T05:56:12.870Z,2.33
2022-10-29T05:58:42.141Z,2.70
2022-10-29T06:01:12.952Z,2.63
2022-10-29T06:03:41.248Z,2.73
2022-10-29T06:06:10.515Z,2.83
2022-10-29T06:08:38.983Z,2.33
2022-10-29T06:11:07.091Z,2.67
2022-10-29T06:13:35.479Z,2.33
2022-10-29T06:16:03.879Z,2.57
2022-10-29T06:18:33.476Z,2.80
2022-10-29T06:21:02.255Z,3.03
2022-10-29T06:23:31.122Z,2.37
2022-10-29T06:26:01.973Z,2.50
2022-10-29T06:28:33.748Z,2.17
2022-10-29T06:31:02.771Z,3.20
2022-10-29T06:33:32.266Z,2.20
2022-10-29T06:36:00.909Z,3.20
2022-10-29T06:38:29.455Z,3.47
2022-10-29T06:40:57.882Z,2.77
2022-10-29T06:43:26.104Z,3.20
2022-10-29T06:45:54.207Z,2.80
2022-10-29T06:48:22.911Z,3.07
2022-10-29T06:50:53.144Z,2.90
2022-10-29T06:53:22.767Z,3.17
2022-10-29T06:55:51.204Z,3.30
2022-10-29T06:58:21.608Z,3.60
2022-10-29T07:00:50.207Z,4.43
2022-10-29T07:03:20.695Z,4.43
2022-10-29T07:05:49.554Z,5.93
2022-10-29T07:08:19.024Z,5.83
2022-10-29T07:10:47.381Z,3.93
2022-10-29T07:13:15.554Z,6.03
2022-10-29T07:15:43.681Z,4.50
2022-10-29T07:18:12.635Z,3.77
2022-10-29T07:20:43.880Z,3.27
2022-10-29T07:23:13.326Z,4.27
2022-10-29T07:25:43.719Z,3.60
2022-10-29T07:28:14.546Z,3.83
2022-10-29T07:30:43.336Z,3.57
2022-10-29T07:33:11.835Z,3.57
2022-10-29T07:35:40.212Z,2.80
2022-10-29T07:38:11.276Z,2.60
2022-10-29T07:40:41.046Z,4.57
2022-10-29T07:43:10.994Z,3.10
2022-10-29T07:45:39.436Z,3.73
2022-10-29T07:48:08.970Z,2.63
2022-10-29T07:50:38.029Z,3.33
2022-10-29T07:53:11.578Z,3.77
2022-10-29T07:55:40.009Z,3.50
2022-10-29T07:58:12.577Z,3.33
2022-10-29T08:00:42.266Z,3.43
2022-10-29T08:03:13.491Z,3.10
2022-10-29T08:05:43.010Z,3.60
2022-10-29T08:08:14.720Z,3.07
2022-10-29T08:10:43.292Z,3.00
2022-10-29T08:13:12.873Z,4.27
2022-10-29T08:15:41.370Z,4.77
2022-10-29T08:18:17.884Z,6.33
2022-10-29T08:20:46.353Z,8.80
2022-10-29T08:23:14.976Z,9.43
2022-10-29T08:25:43.222Z,8.03
2022-10-29T08:28:15.624Z,4.73
2022-10-29T08:30:45.311Z,3.70
2022-10-29T08:33:17.222Z,17.83
2022-10-29T08:35:48.486Z,12.97
2022-10-29T08:38:17.349Z,9.43
2022-10-29T08:41:03.384Z,6.07
2022-10-29T08:46:58.957Z,4.47
2022-10-29T08:49:36.968Z,4.53
2022-10-29T08:52:10.246Z,3.80
2022-10-29T08:54:41.871Z,3.30
2022-10-29T08:57:16.370Z,3.60
2022-10-29T08:59:58.884Z,3.73
2022-10-29T09:05:54.628Z,3.67
2022-10-29T09:08:33.941Z,3.00
2022-10-29T09:11:29.740Z,3.83
2022-10-29T09:14:10.963Z,3.37
2022-10-29T09:16:49.851Z,3.47
2022-10-29T09:20:01.940Z,4.03
2022-10-29T09:22:50.525Z,2.70
2022-10-29T09:25:24.371Z,3.30
2022-10-29T09:28:04.232Z,3.40
2022-10-29T09:30:39.950Z,3.27
2022-10-29T09:33:15.438Z,2.63
2022-10-29T09:35:53.991Z,2.93
2022-10-29T09:38:25.513Z,3.37
2022-10-29T09:40:59.804Z,3.13
2022-10-29T09:44:07.763Z,2.53
2022-10-29T09:49:27.952Z,3.60
2022-10-29T09:52:03.718Z,3.37
2022-10-29T09:54:33.199Z,3.40
2022-10-29T09:57:03.712Z,3.97
2022-10-29T09:59:36.222Z,3.00
2022-10-29T10:02:11.138Z,3.10
2022-10-29T10:04:46.457Z,3.60
2022-10-29T10:07:19.547Z,3.67
2022-10-29T10:09:57.583Z,3.20
2022-10-29T10:12:27.987Z,3.43
2022-10-29T10:15:18.392Z,3.17
2022-10-29T10:18:01.668Z,3.57
2022-10-29T10:20:37.849Z,3.40
2022-10-29T10:23:24.266Z,3.30
2022-10-29T10:26:03.699Z,2.80
2022-10-29T10:28:35.595Z,3.90
2022-10-29T10:31:13.593Z,2.67
2022-10-29T10:33:53.145Z,3.03
2022-10-29T10:36:26.342Z,3.00
2022-10-29T10:38:56.488Z,3.23
2022-10-29T10:41:27.172Z,3.07
2022-10-29T10:44:00.349Z,3.03
2022-10-29T10:46:32.926Z,3.70
2022-10-29T10:49:04.859Z,3.30
2022-10-29T10:51:39.342Z,3.17
2022-10-29T10:54:29.022Z,3.30
2022-10-29T10:57:02.517Z,2.93
2022-10-29T10:59:45.465Z,2.77
2022-10-29T11:02:22.107Z,3.70
2022-10-29T11:04:57.227Z,3.77
2022-10-29T11:07:31.219Z,3.40
2022-10-29T11:10:01.692Z,3.13
2022-10-29T11:12:33.832Z,3.20
2022-10-29T11:15:08.314Z,3.07
2022-10-29T11:17:41.720Z,3.10
2022-10-29T11:20:22.350Z,4.13
2022-10-29T11:23:03.690Z,3.33
2022-10-29T11:25:38.008Z,3.13
2022-10-29T11:28:16.766Z,3.37
2022-10-29T11:30:52.861Z,3.90
2022-10-29T11:33:28.170Z,3.20
2022-10-29T11:36:02.130Z,3.37
2022-10-29T11:38:35.625Z,2.80
2022-10-29T11:41:08.720Z,2.97
2022-10-29T11:43:37.100Z,3.37
2022-10-29T11:46:12.884Z,2.93
2022-10-29T11:48:54.839Z,2.93
2022-10-29T11:51:31.494Z,4.00
2022-10-29T11:54:05.409Z,3.27
2022-10-29T11:56:47.287Z,2.70
2022-10-29T11:59:23.865Z,3.47
2022-10-29T12:01:58.694Z,3.20
2022-10-29T12:04:31.342Z,3.13
2022-10-29T12:07:20.279Z,3.40
2022-10-29T12:10:16.114Z,3.70
2022-10-29T12:12:51.204Z,3.73
2022-10-29T12:15:24.980Z,3.50
2022-10-29T12:18:06.586Z,3.50
2022-10-29T12:20:44.547Z,3.13
2022-10-29T12:23:25.587Z,3.60
2022-10-29T12:26:04.792Z,3.37
2022-10-29T12:28:42.957Z,3.10
2022-10-29T12:31:27.586Z,3.77
2022-10-29T12:34:02.995Z,4.00
2022-10-29T12:36:38.028Z,3.07
2022-10-29T12:39:13.288Z,4.07
2022-10-29T12:41:46.923Z,3.50
2022-10-29T12:44:19.669Z,3.70
2022-10-29T12:46:55.327Z,3.90
2022-10-29T12:49:43.207Z,2.83
2022-10-29T12:52:18.639Z,3.30
2022-10-29T12:54:49.435Z,3.83
2022-10-29T12:57:32.767Z,4.10
2022-10-29T13:00:42.527Z,3.90
2022-10-29T13:03:10.939Z,3.43
2022-10-29T13:05:42.226Z,3.37
2022-10-29T13:08:28.421Z,3.47
2022-10-29T13:10:58.484Z,3.37
2022-10-29T13:13:56.588Z,4.10
2022-10-29T13:16:32.282Z,3.33
2022-10-29T13:19:35.327Z,3.30
2022-10-29T13:22:09.539Z,2.77
2022-10-29T13:24:37.940Z,3.50
2022-10-29T13:27:22.855Z,3.63
2022-10-29T13:30:11.845Z,3.30
2022-10-29T13:32:41.531Z,3.57
2022-10-29T13:35:44.446Z,3.80
2022-10-29T13:38:16.201Z,3.83
2022-10-29T13:41:15.861Z,3.07
2022-10-29T13:43:53.941Z,3.53
2022-10-29T13:46:36.822Z,3.47
2022-10-29T13:49:14.001Z,3.50
2022-10-29T13:51:51.414Z,3.00
2022-10-29T13:57:06.224Z,2.97
2022-10-29T13:59:41.385Z,3.53
2022-10-29T14:02:24.188Z,3.50
2022-10-29T14:04:57.860Z,3.20
2022-10-29T14:07:31.960Z,3.47
2022-10-29T14:10:07.265Z,3.57
2022-10-29T14:12:35.867Z,3.77
2022-10-29T14:15:08.422Z,4.07
2022-10-29T14:17:36.605Z,3.77
2022-10-29T14:20:06.951Z,3.53
2022-10-29T14:22:37.785Z,4.17
2022-10-29T14:25:44.318Z,3.53
2022-10-29T14:28:18.231Z,3.90
2022-10-29T14:30:46.810Z,3.40
2022-10-29T14:33:25.797Z,3.17
2022-10-29T14:36:00.524Z,4.00
2022-10-29T14:38:40.041Z,4.03
2022-10-29T14:41:08.558Z,3.70
2022-10-29T14:43:37.430Z,3.57
2022-10-29T14:46:24.784Z,4.10
2022-10-29T14:49:03.081Z,4.17
2022-10-29T14:51:38.748Z,3.57
2022-10-29T14:54:26.573Z,3.67
2022-10-29T14:56:58.594Z,4.07
2022-10-29T14:59:29.617Z,3.97
2022-10-29T15:02:17.406Z,4.67
2022-10-29T15:04:49.764Z,3.60
2022-10-29T15:07:34.396Z,3.87
2022-10-29T15:10:22.170Z,3.60
2022-10-29T15:12:50.844Z,3.50
2022-10-29T15:15:28.696Z,3.07
2022-10-29T15:18:03.839Z,3.90
2022-10-29T15:20:36.381Z,4.13
2022-10-29T15:23:06.356Z,4.27
2022-10-29T15:25:37.490Z,3.20
2022-10-29T15:28:10.362Z,3.50
2022-10-29T15:30:39.930Z,3.70
2022-10-29T15:33:15.583Z,3.67
2022-10-29T15:35:49.238Z,4.33
2022-10-29T15:39:08.892Z,3.70
2022-10-29T15:41:40.385Z,3.70
2022-10-29T15:44:35.955Z,3.53
2022-10-29T15:47:23.200Z,3.23
2022-10-29T15:49:51.574Z,4.30
2022-10-29T15:52:21.390Z,5.30
2022-10-29T15:54:53.207Z,3.40
2022-10-29T15:57:22.915Z,4.20
2022-10-29T16:03:01.676Z,5.20
2022-10-29T16:05:30.151Z,5.10
2022-10-29T16:08:02.595Z,4.40
2022-10-29T16:10:33.080Z,4.70
2022-10-29T16:13:01.538Z,4.43
2022-10-29T16:15:29.883Z,4.70
2022-10-29T16:17:58.582Z,4.27
2022-10-29T16:20:27.587Z,4.50
2022-10-29T16:22:56.018Z,3.97
2022-10-29T16:25:26.468Z,5.37
2022-10-29T16:27:57.122Z,4.90
2022-10-29T16:30:26.075Z,5.23
2022-10-29T16:32:55.280Z,5.53
2022-10-29T16:35:25.640Z,4.90
2022-10-29T16:37:55.635Z,4.17
2022-10-29T16:40:26.418Z,5.03
2022-10-29T16:42:56.835Z,5.30
2022-10-29T16:45:26.932Z,5.23
2022-10-29T16:47:56.665Z,4.80
2022-10-29T16:50:26.916Z,5.20
2022-10-29T16:52:59.699Z,4.87
2022-10-29T16:55:28.211Z,4.87
2022-10-29T16:57:58.434Z,4.80
2022-10-29T17:00:27.004Z,4.50
2022-10-29T17:02:55.590Z,3.53
2022-10-29T17:05:24.225Z,4.73
2022-10-29T17:07:54.708Z,4.10
2022-10-29T17:10:23.356Z,4.70
2022-10-29T17:12:51.404Z,4.10
2022-10-29T17:15:21.169Z,4.07
2022-10-29T17:17:49.379Z,4.90
2022-10-29T17:20:17.763Z,5.07
2022-10-29T17:22:46.607Z,4.53
2022-10-29T17:25:14.900Z,4.87
2022-10-29T17:27:43.833Z,3.80
2022-10-29T17:30:12.796Z,4.07
2022-10-29T17:32:42.702Z,4.40
2022-10-29T17:35:11.117Z,4.27
2022-10-29T17:37:39.599Z,4.03
2022-10-29T17:40:08.683Z,3.50
2022-10-29T17:42:37.197Z,4.43
2022-10-29T17:45:05.695Z,4.47
2022-10-29T17:47:33.789Z,4.33
2022-10-29T17:50:03.978Z,4.57
2022-10-29T17:52:32.427Z,3.90
2022-10-29T17:55:00.764Z,4.47
2022-10-29T17:57:28.757Z,5.80
2022-10-29T17:59:57.025Z,4.80
2022-10-29T18:02:25.205Z,4.43
2022-10-29T18:04:53.715Z,4.70
2022-10-29T18:07:26.267Z,4.93
2022-10-29T18:09:54.784Z,4.07
2022-10-29T18:12:24.281Z,4.10
2022-10-29T18:14:55.050Z,4.27
2022-10-29T18:17:23.515Z,3.83
2022-10-29T18:19:52.070Z,4.90
2022-10-29T18:22:20.434Z,3.83
2022-10-29T18:24:50.661Z,4.53
2022-10-29T18:27:20.210Z,4.10
2022-10-29T18:29:48.902Z,4.30
2022-10-29T18:32:17.421Z,4.33
2022-10-29T18:34:46.057Z,4.43
2022-10-29T18:37:17.066Z,4.13
2022-10-29T18:39:45.470Z,4.40
2022-10-29T18:42:15.288Z,4.63
2022-10-29T18:44:44.159Z,4.20
2022-10-29T18:47:13.048Z,4.00
2022-10-29T18:49:42.413Z,4.30
2022-10-29T18:52:10.820Z,3.90
2022-10-29T18:54:39.131Z,4.60
2022-10-29T18:57:07.606Z,5.00
2022-10-29T18:59:37.537Z,4.37
2022-10-29T19:02:06.000Z,3.83
2022-10-29T19:04:34.603Z,4.27
2022-10-29T19:07:03.069Z,3.70
2022-10-29T19:09:33.549Z,4.50
2022-10-29T19:12:02.979Z,4.60
2022-10-29T19:14:31.597Z,4.03
2022-10-29T19:17:01.264Z,4.20
2022-10-29T19:19:29.709Z,4.30
2022-10-29T19:21:58.135Z,4.20
2022-10-29T19:24:26.542Z,4.47
2022-10-29T19:26:54.749Z,4.43
2022-10-29T19:29:23.333Z,5.07
2022-10-29T19:31:51.524Z,4.23
2022-10-29T19:34:21.387Z,5.87
2022-10-29T19:42:24.041Z,4.50
2022-10-29T19:44:56.327Z,4.93
2022-10-29T19:47:24.804Z,4.30
2022-10-29T19:52:57.447Z,5.07
2022-10-29T19:55:28.204Z,5.50
2022-10-29T19:57:56.735Z,5.03
2022-10-29T20:03:27.060Z,5.60
2022-10-29T20:05:56.787Z,5.50
2022-10-29T20:08:27.400Z,5.53
2022-10-29T20:10:56.928Z,5.10
2022-10-29T20:13:25.690Z,6.30
2022-10-29T20:15:55.076Z,5.30
2022-10-29T20:18:23.899Z,6.40
2022-10-29T20:20:56.228Z,5.93
2022-10-29T20:23:26.645Z,5.27
2022-10-29T20:25:54.819Z,5.77
2022-10-29T20:28:23.171Z,4.97
2022-10-29T20:30:51.616Z,5.77
2022-10-29T20:33:23.418Z,4.97
2022-10-29T20:35:58.457Z,5.27
2022-10-29T20:38:28.536Z,5.30
2022-10-29T20:40:56.979Z,4.80
2022-10-29T20:43:25.675Z,4.70
2022-10-29T20:45:53.941Z,5.33
2022-10-29T20:48:22.632Z,5.90
2022-10-29T20:50:52.541Z,5.00
2022-10-29T20:53:22.226Z,6.70
2022-10-29T20:55:52.708Z,5.67
2022-10-29T20:58:22.466Z,5.80
2022-10-29T21:00:51.246Z,5.83
2022-10-29T21:03:19.876Z,5.67
2022-10-29T21:05:48.584Z,4.97
2022-10-29T21:08:16.942Z,5.30
2022-10-29T21:10:45.195Z,5.73
2022-10-29T21:13:14.823Z,6.10
2022-10-29T21:15:43.271Z,6.23
2022-10-29T21:18:11.346Z,7.43
2022-10-29T21:20:39.456Z,8.53
2022-10-29T21:23:07.941Z,6.93
2022-10-29T21:25:36.542Z,6.27
2022-10-29T21:28:05.153Z,7.93
2022-10-29T21:30:35.127Z,6.50
2022-10-29T21:33:03.465Z,5.23
2022-10-29T21:35:31.789Z,5.00
2022-10-29T21:38:00.550Z,4.90
2022-10-29T21:40:28.793Z,4.87
2022-10-29T21:42:57.536Z,4.93
2022-10-29T21:45:25.844Z,6.00
2022-10-29T21:47:55.573Z,4.93
2022-10-29T21:50:23.582Z,5.73
2022-10-29T21:52:52.059Z,5.43
2022-10-29T21:55:20.791Z,5.63
2022-10-29T21:57:48.884Z,5.43
2022-10-29T22:00:18.370Z,5.33
2022-10-29T22:02:46.788Z,5.57
2022-10-29T22:05:16.694Z,5.13
2022-10-29T22:07:44.868Z,5.63
2022-10-29T22:10:13.445Z,5.17
2022-10-29T22:12:41.858Z,4.90
2022-10-29T22:15:11.021Z,4.73
2022-10-29T22:17:39.361Z,5.47
2022-10-29T22:20:08.407Z,4.97
2022-10-29T22:22:38.240Z,4.33
2022-10-29T22:25:07.490Z,4.97
2022-10-29T22:27:35.813Z,4.90
2022-10-29T22:30:04.271Z,5.50
2022-10-29T22:32:35.520Z,5.00
2022-10-29T22:35:05.074Z,5.53
2022-10-29T22:37:33.394Z,4.50
2022-10-29T22:40:03.111Z,4.43
2022-10-29T22:42:31.581Z,5.20
2022-10-29T22:45:00.027Z,4.60
2022-10-29T22:47:28.160Z,4.70
2022-10-29T22:49:58.887Z,4.33
2022-10-29T22:52:27.368Z,4.67
2022-10-29T22:54:55.838Z,4.70
2022-10-29T22:57:25.435Z,5.30
2022-10-29T22:59:53.816Z,4.17
2022-10-29T23:02:22.306Z,4.43
2022-10-29T23:04:50.741Z,4.70
2022-10-29T23:07:18.868Z,4.10
2022-10-29T23:09:47.290Z,4.67
2022-10-29T23:12:15.792Z,4.60
2022-10-29T23:14:45.245Z,3.73
2022-10-29T23:17:19.820Z,3.83
2022-10-29T23:19:48.173Z,5.07
2022-10-29T23:22:16.236Z,5.63
2022-10-29T23:24:45.121Z,4.37
2022-10-29T23:27:13.159Z,3.93
2022-10-29T23:29:41.752Z,3.77
2022-10-29T23:32:11.301Z,4.77
2022-10-29T23:34:39.632Z,4.37
2022-10-29T23:37:10.016Z,3.70
2022-10-29T23:39:38.550Z,4.93
2022-10-29T23:42:06.981Z,4.30
2022-10-29T23:44:36.194Z,4.10
2022-10-29T23:47:04.427Z,4.10
2022-10-29T23:49:34.462Z,3.63
2022-10-29T23:52:02.780Z,4.03
2022-10-29T23:54:31.030Z,3.93
2022-10-29T23:56:59.164Z,3.70
2022-10-29T23:59:27.684Z,3.77
